createdAt,value
2023-04-27T00:03:46.100Z,100774.66
2023-04-27T00:08:39.384Z,100833.72
2023-04-27T00:13:32.592Z,100670.84
2023-04-27T00:18:25.925Z,100833.38
2023-04-27T00:23:20.503Z,100814.16
2023-04-27T00:28:13.602Z,100868.53
2023-04-27T00:33:07.214Z,100850.81
2023-04-27T00:38:00.505Z,100870.03
2023-04-27T00:42:57.585Z,100666.19
2023-04-27T00:47:52.141Z,100804.56
2023-04-27T00:52:45.548Z,100860.16
2023-04-27T00:57:39.144Z,100860.16
2023-04-27T01:02:34.320Z,100758.41
2023-04-27T01:07:27.920Z,100855.72
2023-04-27T01:12:21.177Z,100851.53
2023-04-27T01:17:15.384Z,100859.06
2023-04-27T01:22:10.475Z,100877.19
2023-04-27T01:27:05.842Z,100869.97
2023-04-27T01:31:59.034Z,100903.75
2023-04-27T01:36:52.176Z,100857.88
2023-04-27T01:41:45.389Z,100754.16
2023-04-27T01:46:40.210Z,100806.22
2023-04-27T01:51:34.050Z,100913.34
2023-04-27T01:56:27.395Z,100861.75
2023-04-27T02:01:22.868Z,100896.22
2023-04-27T02:06:17.845Z,100944.94
2023-04-27T02:11:12.564Z,100898.09
2023-04-27T02:16:06.120Z,100923.31
2023-04-27T02:20:59.516Z,100955.44
2023-04-27T02:25:55.224Z,100923.19
2023-04-27T02:30:48.474Z,100967.78
2023-04-27T02:35:41.593Z,100945.75
2023-04-27T02:40:35.147Z,100932.53
2023-04-27T02:45:29.834Z,100976.91
2023-04-27T02:50:24.614Z,100950.31
2023-04-27T02:55:18.077Z,100977.16
2023-04-27T03:00:12.647Z,100984.66
2023-04-27T03:05:08.477Z,100958.06
2023-04-27T03:10:03.608Z,100959.09
2023-04-27T03:14:56.962Z,101014.03
2023-04-27T03:19:50.865Z,100995.69
2023-04-27T03:24:48.480Z,100957.72
2023-04-27T03:29:42.461Z,101037.56
2023-04-27T03:34:37.876Z,101050.47
2023-04-27T03:39:31.566Z,100933.75
2023-04-27T03:44:26.142Z,100997.06
2023-04-27T03:49:19.473Z,101055.84
2023-04-27T03:54:12.796Z,100966.69
2023-04-27T03:59:06.451Z,101019.91
2023-04-27T04:04:04.331Z,101058.00
2023-04-27T04:08:58.428Z,100987.00
2023-04-27T04:13:51.765Z,100933.59
2023-04-27T04:18:45.896Z,100947.75
2023-04-27T04:23:44.356Z,100979.28
2023-04-27T04:28:38.738Z,100896.75
2023-04-27T04:33:32.584Z,101084.44
2023-04-27T04:38:26.518Z,101071.19
2023-04-27T04:43:22.900Z,101095.50
2023-04-27T04:48:16.819Z,101018.34
2023-04-27T04:53:13.641Z,101084.28
2023-04-27T04:58:08.853Z,101090.22
2023-04-27T05:03:04.010Z,101096.72
2023-04-27T05:07:58.416Z,100916.59
2023-04-27T05:12:52.157Z,100942.28
2023-04-27T05:17:45.650Z,101003.81
2023-04-27T05:22:40.748Z,101076.13
2023-04-27T05:27:35.820Z,101102.56
2023-04-27T05:32:29.085Z,101105.84
2023-04-27T05:37:22.699Z,101117.84
2023-04-27T05:42:17.393Z,101092.06
2023-04-27T05:47:10.870Z,101090.13
2023-04-27T05:52:04.783Z,101104.53
2023-04-27T05:57:00.199Z,101032.06
2023-04-27T06:01:55.430Z,101097.47
2023-04-27T06:06:50.062Z,100975.88
2023-04-27T06:11:43.742Z,101124.28
2023-04-27T06:16:40.768Z,101126.78
2023-04-27T06:21:35.693Z,101093.66
2023-04-27T06:26:29.201Z,101138.28
2023-04-27T06:31:22.464Z,101136.63
2023-04-27T06:36:15.705Z,101017.75
2023-04-27T06:41:10.453Z,101104.72
2023-04-27T06:46:03.824Z,101143.44
2023-04-27T06:50:57.056Z,100994.06
2023-04-27T06:55:51.142Z,101086.59
2023-04-27T07:00:52.934Z,101143.16
2023-04-27T07:05:46.774Z,101103.81
2023-04-27T07:10:40.204Z,101147.19
2023-04-27T07:15:33.719Z,101138.25
2023-04-27T07:20:28.621Z,101037.78
2023-04-27T07:25:22.755Z,101155.00
2023-04-27T07:30:17.633Z,101073.78
2023-04-27T07:35:12.238Z,100988.66
2023-04-27T07:40:16.890Z,101125.22
2023-04-27T07:45:11.028Z,101113.13
2023-04-27T07:50:06.366Z,101142.72
2023-04-27T07:55:02.346Z,101123.38
2023-04-27T07:59:58.536Z,101133.78
2023-04-27T08:04:54.702Z,101176.22
2023-04-27T08:09:48.121Z,101187.13
2023-04-27T08:14:41.475Z,101178.53
2023-04-27T08:19:36.142Z,101151.72
2023-04-27T08:24:29.391Z,101023.72
2023-04-27T08:29:27.637Z,101143.44
2023-04-27T08:34:27.338Z,101091.25
2023-04-27T08:39:22.615Z,101175.41
2023-04-27T08:44:16.299Z,101125.38
2023-04-27T08:49:10.042Z,101179.75
2023-04-27T08:54:05.875Z,101181.66
2023-04-27T08:59:02.298Z,101178.38
2023-04-27T09:03:59.835Z,101162.22
2023-04-27T09:08:53.458Z,101146.72
2023-04-27T09:13:46.694Z,101142.53
2023-04-27T09:18:43.725Z,101139.88
2023-04-27T09:23:39.247Z,101129.50
2023-04-27T09:28:32.975Z,101170.06
2023-04-27T09:33:27.212Z,101154.09
2023-04-27T09:38:23.380Z,101156.72
2023-04-27T09:43:16.889Z,101151.09
2023-04-27T09:48:11.154Z,101137.03
2023-04-27T09:53:06.719Z,101104.94
2023-04-27T09:58:34.486Z,101070.31
2023-04-27T10:03:38.414Z,101136.06
2023-04-27T10:08:31.741Z,101107.88
2023-04-27T10:13:27.812Z,101136.63
2023-04-27T10:18:28.979Z,101136.47
2023-04-27T10:23:26.853Z,101092.97
2023-04-27T10:28:21.407Z,101030.75
2023-04-27T10:33:20.879Z,101089.44
2023-04-27T10:38:17.634Z,101034.03
2023-04-27T10:43:12.387Z,101110.41
2023-04-27T10:48:06.979Z,101101.78
2023-04-27T10:53:06.331Z,101043.66
2023-04-27T10:58:00.279Z,101130.03
2023-04-27T11:02:54.943Z,101063.16
2023-04-27T11:07:48.499Z,101129.22
2023-04-27T11:12:44.090Z,101062.13
2023-04-27T11:17:38.662Z,100975.78
2023-04-27T11:22:32.477Z,101108.75
2023-04-27T11:27:27.911Z,101115.13
2023-04-27T11:32:23.160Z,100958.06
2023-04-27T11:37:24.266Z,101116.38
2023-04-27T11:42:22.179Z,101050.66
2023-04-27T11:47:19.342Z,101082.19
2023-04-27T11:52:15.712Z,100936.94
2023-04-27T11:57:16.813Z,101101.63
2023-04-27T12:02:10.388Z,100957.63
2023-04-27T12:07:04.454Z,101054.13
2023-04-27T12:11:59.334Z,100957.53
2023-04-27T12:16:53.032Z,101006.72
2023-04-27T12:21:46.884Z,101083.84
2023-04-27T12:26:40.290Z,101075.59
2023-04-27T12:31:35.006Z,101064.31
2023-04-27T12:36:28.806Z,101065.16
2023-04-27T12:41:23.418Z,101066.41
2023-04-27T12:46:18.353Z,101027.13
2023-04-27T12:51:14.673Z,100927.19
2023-04-27T12:56:08.210Z,101057.16
2023-04-27T13:01:03.005Z,101061.75
2023-04-27T13:05:56.265Z,101057.47
2023-04-27T13:10:50.951Z,101033.22
2023-04-27T13:15:44.156Z,101029.78
2023-04-27T13:20:40.549Z,101035.22
2023-04-27T13:25:36.230Z,100982.59
2023-04-27T13:30:32.182Z,100925.75
2023-04-27T13:35:29.324Z,100906.38
2023-04-27T13:40:22.546Z,101023.50
2023-04-27T13:45:16.086Z,100993.97
2023-04-27T13:50:13.316Z,101002.56
2023-04-27T13:55:12.908Z,101040.44
2023-04-27T14:00:11.619Z,101016.16
2023-04-27T14:05:06.076Z,101038.81
2023-04-27T14:10:01.380Z,101014.84
2023-04-27T14:14:56.681Z,101037.84
2023-04-27T14:19:51.607Z,100971.97
2023-04-27T14:24:45.519Z,101045.91
2023-04-27T14:29:40.148Z,100995.91
2023-04-27T14:34:34.098Z,100974.97
2023-04-27T14:39:33.104Z,100962.59
2023-04-27T14:44:26.521Z,100975.72
2023-04-27T14:49:21.942Z,101015.28
2023-04-27T14:54:15.106Z,101011.06
2023-04-27T14:59:08.352Z,101042.22
2023-04-27T15:04:02.367Z,101054.34
2023-04-27T15:08:57.716Z,101010.81
2023-04-27T15:13:51.434Z,100967.13
2023-04-27T15:18:44.810Z,100832.59
2023-04-27T15:23:38.002Z,100939.47
2023-04-27T15:28:33.836Z,101054.34
2023-04-27T15:33:30.221Z,101057.06
2023-04-27T15:38:26.757Z,100992.28
2023-04-27T15:43:19.987Z,101065.66
2023-04-27T15:48:16.558Z,100986.44
2023-04-27T15:53:09.997Z,101047.34
2023-04-27T15:58:03.479Z,101044.31
2023-04-27T16:02:56.946Z,100985.97
2023-04-27T16:07:51.667Z,101088.81
2023-04-27T16:12:45.039Z,101095.41
2023-04-27T16:17:42.884Z,101098.91
2023-04-27T16:22:36.588Z,101062.41
2023-04-27T16:27:31.183Z,101103.66
2023-04-27T16:32:24.493Z,101094.41
2023-04-27T16:37:17.918Z,101105.72
2023-04-27T16:42:13.012Z,101090.50
2023-04-27T16:47:07.603Z,101091.72
2023-04-27T16:52:00.990Z,101129.03
2023-04-27T16:56:55.241Z,101105.22
2023-04-27T17:01:48.867Z,101060.88
2023-04-27T17:06:45.550Z,101097.34
2023-04-27T17:11:38.893Z,101104.72
2023-04-27T17:16:33.238Z,101121.84
2023-04-27T17:21:27.550Z,101169.84
2023-04-27T17:26:22.791Z,101171.53
2023-04-27T17:31:17.655Z,101187.75
2023-04-27T17:36:11.268Z,101146.34
2023-04-27T17:41:04.516Z,101142.53
2023-04-27T17:45:59.305Z,101190.94
2023-04-27T17:50:52.792Z,101203.69
2023-04-27T17:55:49.159Z,101192.97
2023-04-27T18:00:52.590Z,101131.81
2023-04-27T18:05:47.633Z,101093.88
2023-04-27T18:10:43.670Z,101220.59
2023-04-27T18:15:37.167Z,101150.75
2023-04-27T18:20:30.576Z,101149.03
2023-04-27T18:25:25.608Z,101235.22
2023-04-27T18:30:19.347Z,101148.81
2023-04-27T18:35:15.262Z,101193.16
2023-04-27T18:40:10.059Z,101264.81
2023-04-27T18:45:05.692Z,101187.31
2023-04-27T18:50:02.291Z,101189.72
2023-04-27T18:54:56.063Z,101216.00
2023-04-27T18:59:51.310Z,101321.69
2023-04-27T19:04:52.873Z,101311.09
2023-04-27T19:09:51.898Z,101324.78
2023-04-27T19:14:48.236Z,101324.78
2023-04-27T19:19:41.614Z,101244.28
2023-04-27T19:24:36.354Z,101331.88
2023-04-27T19:29:31.503Z,101301.47
2023-04-27T19:34:24.778Z,101315.06
2023-04-27T19:39:22.596Z,101285.66
2023-04-27T19:44:17.438Z,101232.03
2023-04-27T19:49:10.786Z,101298.22
2023-04-27T19:54:04.679Z,101324.63
2023-04-27T19:59:00.448Z,101324.16
2023-04-27T20:03:58.096Z,101218.41
2023-04-27T20:08:51.790Z,101207.97
2023-04-27T20:13:49.658Z,101244.66
2023-04-27T20:18:46.472Z,101247.75
2023-04-27T20:23:45.110Z,101242.34
2023-04-27T20:28:38.571Z,101218.31
2023-04-27T20:33:32.340Z,101140.25
2023-04-27T20:38:28.725Z,101281.84
2023-04-27T20:43:24.792Z,101245.56
2023-04-27T20:48:20.897Z,101366.19
2023-04-27T20:53:14.388Z,101262.97
2023-04-27T20:58:07.919Z,101369.47
2023-04-27T21:03:07.758Z,101282.41
2023-04-27T21:08:05.908Z,101197.78
2023-04-27T21:13:01.636Z,101391.97
2023-04-27T21:17:58.909Z,101283.09
2023-04-27T21:23:15.123Z,101146.81
2023-04-27T21:34:46.113Z,101250.00
2023-04-27T21:45:12.824Z,101192.22
2023-04-27T21:50:10.324Z,101291.28
2023-04-27T21:55:08.283Z,101293.56
2023-04-27T22:00:03.178Z,101431.56
2023-04-27T22:05:00.421Z,101261.59
2023-04-27T22:09:55.879Z,101431.06
2023-04-27T22:14:51.298Z,101412.59
2023-04-27T22:19:45.568Z,101312.16
2023-04-27T22:24:38.952Z,101241.88
2023-04-27T22:29:32.230Z,101451.91
2023-04-27T22:34:34.880Z,101265.53
2023-04-27T22:39:38.033Z,101420.25
2023-04-27T22:44:31.854Z,101365.06
2023-04-27T22:49:27.037Z,101466.97
2023-04-27T22:54:23.996Z,101322.44
2023-04-27T22:59:23.423Z,101397.38
2023-04-27T23:04:20.754Z,101489.31
2023-04-27T23:09:16.087Z,101484.84
2023-04-27T23:14:09.519Z,101486.47
2023-04-27T23:19:02.712Z,101482.75
2023-04-27T23:24:03.810Z,101383.44
2023-04-27T23:28:58.472Z,101486.63
2023-04-27T23:34:08.812Z,101394.91
2023-04-27T23:39:11.990Z,101335.00
2023-04-27T23:44:15.171Z,101470.31
2023-04-27T23:49:25.704Z,101404.78
2023-04-27T23:54:19.128Z,101308.13
2023-04-27T23:59:30.362Z,101460.22
